Hlavní strana
METAR-TAF:

METAR-TAF

Letiště :

Voroněž, Rusko

zeměpisná šířka: 51-39N, zeměpisná délka: 039-15E, výška: 154 m

Aktuální stav počasí

Zpráva byla vytvořena před 34 minutami, v 03:30 UTC
Východojihovýchodní vítr 8 kt
Teplota 3°C
Vlhkost vzduchu 93%
Tlak 1030 hPa
Viditelnost 10 km a více
Zataženo ve výšce 1100 ft

METAR: UUOO 180330Z 12004MPS 9999 OVC011 03/02 Q1030 R12/190060 NOSIG RMK QFE758

Čas: 07:04 (04:04 UTC)

Předpověď počasí

Zpráva byla vytvořena před 2 hodinami a 5 minutami, v 01:59 UTC
Předpověď platná od 18 v 03 UTC do 18 v 12 UTC
Východojihovýchodní vítr 6 kt
Viditelnost: 3100 m
Zataženo ve výšce 600 ft
kouřmo
Dočasný
od 18 v 03 UTC do 18 v 08 UTC
Viditelnost: 0400 m
ve výšce 200 ft
mlha
Změna
od 18 v 08 UTC do 18 v 10 UTC
Viditelnost: 6000 m
Oblačno až skoro zataženo ve výšce 1100 ft

TAF: UUOO 180159Z 1803/1812 12003MPS 3100 BR OVC006 TEMPO 1803/1808 0400 FG VV002 BECMG 1808/1810 6000 BKN011

Stav a předpovědi počasí z více než 4 000 letišť (zprávy METAR a TAF).

Červené a žluté tečky na mapě představují dostupné meteorologické stanice.

Když kurzor umístíte na tečku, zobrazí se název stanice.

Pak kliknutím zobrazíte stav a předpověď počasí.

Chcete-li změnit mapu, kliknutím na zelené tlačítko se znaménkem +mapu přiblížíte, kliknutím na zelené tlačítko se znaménkem – mapu oddálíte a kliknutím na zelené šipky přejdete na sousední mapy.


METAR-TAF: